Time;durP1;ratioP1;P1;durP2;ratioP2;P2;SDS_P1;SDS_P2;PMS_P1;PMS_P2;Temp;Humidity;BMP_temperature;BMP_pressure;BME280_temperature;BME280_humidity;BME280_pressure;Samples;Min_cycle;Max_cycle;Signal;HPM_P1;HPM_P2
2023/05/26 00:00:27;;;;;;;21.53;6.63;;;13.40;99.90;;;;;;5095604;28;20223;-80
2023/05/26 00:02:52;;;;;;;20.33;6.87;;;13.40;99.90;;;;;;5100915;28;20198;-79
2023/05/26 00:05:20;;;;;;;18.00;6.70;;;13.40;99.90;;;;;;5077228;28;20459;-81
2023/05/26 00:07:46;;;;;;;21.17;6.77;;;13.30;99.90;;;;;;5079265;28;20181;-79
2023/05/26 00:10:12;;;;;;;25.57;7.80;;;13.30;99.90;;;;;;5101236;28;20803;-81
2023/05/26 00:12:38;;;;;;;21.67;7.10;;;13.20;99.90;;;;;;5092643;28;20440;-79
2023/05/26 00:15:04;;;;;;;24.27;8.47;;;13.10;99.90;;;;;;5080326;28;20208;-80
2023/05/26 00:17:30;;;;;;;29.90;6.43;;;13.10;99.90;;;;;;5071326;28;20185;-79
2023/05/26 00:19:59;;;;;;;22.60;7.40;;;13.10;99.90;;;;;;5090207;28;20478;-79
2023/05/26 00:22:28;;;;;;;24.27;7.40;;;13.00;99.90;;;;;;5092376;28;20179;-80
2023/05/26 00:24:54;;;;;;;20.43;7.50;;;13.00;99.90;;;;;;5066970;28;20458;-79
2023/05/26 00:27:19;;;;;;;22.70;7.40;;;13.00;99.90;;;;;;5096527;28;20446;-79
2023/05/26 00:29:45;;;;;;;24.60;7.70;;;13.00;99.90;;;;;;5066125;28;20208;-81
2023/05/26 00:32:11;;;;;;;23.40;7.10;;;13.00;99.90;;;;;;5092736;28;20651;-79
2023/05/26 00:34:37;;;;;;;18.83;7.37;;;13.00;99.90;;;;;;5085286;28;20303;-80
2023/05/26 00:37:02;;;;;;;22.50;6.33;;;13.00;99.90;;;;;;5096109;28;20468;-80
2023/05/26 00:39:30;;;;;;;24.33;6.97;;;12.90;99.90;;;;;;5068213;28;20239;-80
2023/05/26 00:41:56;;;;;;;38.47;7.33;;;12.90;99.90;;;;;;5092830;28;20930;-79
2023/05/26 00:44:22;;;;;;;17.60;7.03;;;12.90;99.90;;;;;;5101372;28;20411;-79
2023/05/26 00:46:48;;;;;;;23.53;6.33;;;12.90;99.90;;;;;;5099745;28;20588;-81
2023/05/26 00:49:13;;;;;;;21.93;7.43;;;12.80;99.90;;;;;;5099136;28;20192;-78
2023/05/26 00:51:40;;;;;;;17.93;6.20;;;12.80;99.90;;;;;;5097224;28;20414;-79
2023/05/26 00:54:06;;;;;;;18.00;6.30;;;12.70;99.90;;;;;;5095049;28;20192;-80
2023/05/26 00:56:32;;;;;;;17.80;6.70;;;12.70;99.90;;;;;;5100245;28;20457;-80
2023/05/26 00:58:58;;;;;;;18.00;7.23;;;12.70;99.90;;;;;;5091616;28;20421;-80
2023/05/26 01:01:25;;;;;;;18.17;6.43;;;12.60;99.90;;;;;;5099936;28;20449;-81
2023/05/26 01:03:51;;;;;;;19.47;6.50;;;12.60;99.90;;;;;;5101144;28;20450;-78
2023/05/26 01:06:17;;;;;;;17.30;6.20;;;12.50;99.90;;;;;;5096620;28;20446;-80
2023/05/26 01:08:42;;;;;;;19.30;6.30;;;12.50;99.90;;;;;;5078836;28;20406;-79
2023/05/26 01:11:34;;;;;;;25.03;6.43;;;12.50;99.90;;;;;;5098546;28;20519;-79
2023/05/26 01:14:15;;;;;;;22.30;7.23;;;12.40;1.00;;;;;;5099749;28;20176;-79
2023/05/26 01:16:56;;;;;;;25.53;7.53;;;12.40;1.00;;;;;;5090608;28;20449;-79
2023/05/26 01:19:42;;;;;;;24.60;7.03;;;12.30;1.00;;;;;;5088646;28;20486;-79
2023/05/26 01:22:38;;;;;;;29.93;8.03;;;12.30;1.00;;;;;;5099591;28;20422;-79
2023/05/26 01:25:17;;;;;;;23.30;7.90;;;12.20;1.00;;;;;;5099696;28;20487;-80
2023/05/26 01:28:01;;;;;;;28.70;7.07;;;12.20;1.00;;;;;;5096463;28;20432;-79
2023/05/26 01:30:28;;;;;;;26.03;7.37;;;12.10;1.00;;;;;;5086133;28;20488;-80
2023/05/26 01:32:54;;;;;;;31.00;7.40;;;12.10;1.00;;;;;;5078024;28;20442;-78
2023/05/26 01:35:20;;;;;;;27.93;7.77;;;12.00;1.00;;;;;;5076397;28;20490;-80
2023/05/26 01:37:46;;;;;;;24.40;7.70;;;12.00;1.00;;;;;;5087795;28;20237;-80
2023/05/26 01:40:12;;;;;;;26.67;7.50;;;12.00;1.00;;;;;;5090911;28;20195;-79
2023/05/26 01:42:44;;;;;;;20.33;6.40;;;11.90;1.00;;;;;;5089122;28;20446;-79
2023/05/26 01:45:15;;;;;;;27.57;7.70;;;11.90;1.00;;;;;;5098083;28;20477;-79
2023/05/26 01:47:42;;;;;;;25.27;6.93;;;11.80;1.00;;;;;;5098357;28;20438;-81
2023/05/26 01:50:09;;;;;;;22.93;6.53;;;11.80;1.00;;;;;;5094733;28;20434;-79
2023/05/26 01:52:40;;;;;;;27.80;8.40;;;11.80;1.00;;;;;;5095764;28;20434;-79
2023/05/26 01:55:11;;;;;;;20.63;6.00;;;11.80;1.00;;;;;;5079126;28;20447;-79
2023/05/26 01:57:37;;;;;;;21.70;6.70;;;11.70;1.00;;;;;;5079521;28;20424;-79
2023/05/26 02:00:04;;;;;;;15.73;6.70;;;11.70;1.00;;;;;;5093495;28;20475;-79
2023/05/26 02:02:29;;;;;;;25.77;7.40;;;11.70;1.00;;;;;;5097500;28;20438;-79
2023/05/26 02:04:55;;;;;;;26.13;6.57;;;11.70;1.00;;;;;;5089554;28;20448;-80
2023/05/26 02:07:21;;;;;;;28.23;7.47;;;11.60;1.00;;;;;;5099868;28;20176;-80
2023/05/26 02:09:46;;;;;;;34.13;8.93;;;11.60;1.00;;;;;;5082779;28;20461;-81
2023/05/26 02:12:13;;;;;;;27.17;9.77;;;11.60;1.00;;;;;;5097501;28;20189;-79
2023/05/26 02:14:38;;;;;;;34.90;8.17;;;11.60;1.00;;;;;;5083461;28;20196;-79
2023/05/26 02:17:04;;;;;;;21.23;7.40;;;11.60;1.00;;;;;;5094445;28;20505;-79
2023/05/26 02:19:30;;;;;;;25.47;7.07;;;11.60;1.00;;;;;;5091847;28;20672;-78
2023/05/26 02:21:56;;;;;;;23.97;6.77;;;11.60;1.00;;;;;;5088056;28;20429;-79
2023/05/26 02:24:22;;;;;;;31.63;7.40;;;11.50;1.00;;;;;;5099065;28;20203;-81
2023/05/26 02:26:47;;;;;;;20.47;7.00;;;11.50;1.00;;;;;;5098218;28;20203;-78
2023/05/26 02:29:13;;;;;;;25.90;7.20;;;11.40;7.60;;;;;;5098173;28;20430;-80
2023/05/26 02:31:39;;;;;;;24.73;7.53;;;11.40;28.60;;;;;;5087721;28;20208;-80
2023/05/26 02:34:05;;;;;;;28.03;7.53;;;11.40;42.50;;;;;;5101383;28;20181;-79
2023/05/26 02:36:31;;;;;;;16.03;6.20;;;11.40;76.70;;;;;;5103200;28;20437;-80
2023/05/26 02:38:57;;;;;;;25.03;6.60;;;11.30;87.30;;;;;;5100998;28;20505;-78
2023/05/26 02:41:23;;;;;;;25.03;7.13;;;11.30;90.50;;;;;;5093454;28;20550;-79
2023/05/26 02:43:48;;;;;;;24.80;5.93;;;11.20;87.40;;;;;;5081038;28;20454;-79
2023/05/26 02:46:14;;;;;;;20.40;6.40;;;11.20;99.90;;;;;;5086899;28;20269;-80
2023/05/26 02:48:40;;;;;;;19.50;6.33;;;11.20;99.90;;;;;;5069153;28;20541;-80
2023/05/26 02:51:05;;;;;;;25.07;6.67;;;11.20;99.90;;;;;;5090272;28;20204;-79
2023/05/26 02:53:32;;;;;;;17.97;6.40;;;11.20;99.90;;;;;;5103697;28;20188;-78
2023/05/26 02:55:58;;;;;;;31.63;7.40;;;11.20;99.90;;;;;;5080611;28;20196;-81
2023/05/26 02:58:23;;;;;;;21.77;7.20;;;11.10;99.90;;;;;;5097324;28;20548;-81
2023/05/26 03:00:50;;;;;;;20.40;6.53;;;11.10;99.90;;;;;;5102411;28;20236;-81
2023/05/26 03:03:16;;;;;;;18.67;6.10;;;11.10;99.90;;;;;;5103000;28;20173;-79
2023/05/26 03:05:42;;;;;;;27.43;7.90;;;11.00;99.90;;;;;;5101616;28;20521;-81
2023/05/26 03:08:07;;;;;;;19.53;7.00;;;11.10;99.90;;;;;;5104662;28;20265;-78
2023/05/26 03:10:33;;;;;;;18.77;6.27;;;11.00;99.90;;;;;;5103278;28;20218;-80
2023/05/26 03:12:59;;;;;;;25.93;5.30;;;11.00;99.90;;;;;;5096111;28;20181;-80
2023/05/26 03:15:26;;;;;;;21.97;7.63;;;11.00;99.90;;;;;;5091071;28;20514;-81
2023/05/26 03:17:51;;;;;;;16.60;5.43;;;10.90;99.90;;;;;;5085054;28;20189;-79
2023/05/26 03:20:17;;;;;;;19.53;5.73;;;10.80;99.90;;;;;;5067441;28;20455;-82
2023/05/26 03:22:42;;;;;;;29.00;6.63;;;10.80;99.90;;;;;;5105749;28;20177;-81
2023/05/26 03:25:08;;;;;;;21.67;7.03;;;10.80;99.90;;;;;;5099279;28;20208;-79
2023/05/26 03:27:38;;;;;;;27.10;7.80;;;10.80;99.90;;;;;;5105174;28;20176;-79
2023/05/26 03:30:04;;;;;;;20.20;7.00;;;10.80;99.90;;;;;;5104045;28;20189;-81
2023/05/26 03:32:29;;;;;;;21.17;7.03;;;10.80;99.90;;;;;;5083699;28;20440;-81
2023/05/26 03:34:55;;;;;;;25.50;5.93;;;10.80;99.90;;;;;;5103032;28;20514;-79
2023/05/26 03:37:20;;;;;;;20.27;6.10;;;10.80;99.90;;;;;;5103599;28;20192;-79
2023/05/26 03:39:46;;;;;;;19.97;6.90;;;10.70;99.90;;;;;;5100813;28;20219;-78
2023/05/26 03:42:11;;;;;;;14.13;6.20;;;10.70;99.90;;;;;;5101806;28;20207;-80
2023/05/26 03:44:37;;;;;;;23.67;7.67;;;10.70;99.90;;;;;;5093703;28;20698;-78
2023/05/26 03:47:02;;;;;;;18.10;5.70;;;10.70;99.90;;;;;;5083417;28;20198;-78
2023/05/26 03:49:28;;;;;;;27.17;7.83;;;10.70;99.90;;;;;;5074261;28;20189;-79
2023/05/26 03:51:53;;;;;;;19.20;7.63;;;10.70;99.90;;;;;;5097975;28;20211;-79
2023/05/26 03:54:19;;;;;;;26.53;8.00;;;10.70;99.90;;;;;;5102681;28;20187;-77
2023/05/26 03:56:45;;;;;;;24.60;7.57;;;10.70;99.90;;;;;;5101833;28;20192;-77
2023/05/26 03:59:10;;;;;;;19.10;6.80;;;10.70;99.90;;;;;;5080619;28;20707;-77
2023/05/26 04:01:36;;;;;;;25.77;6.60;;;10.70;99.90;;;;;;5091412;28;20635;-79
2023/05/26 04:04:02;;;;;;;30.00;7.10;;;10.80;99.90;;;;;;5100552;28;20176;-78
2023/05/26 04:06:28;;;;;;;30.00;5.93;;;10.80;99.90;;;;;;5080736;28;20445;-79
2023/05/26 04:08:54;;;;;;;23.80;6.80;;;10.90;99.90;;;;;;5094082;28;20450;-79
2023/05/26 04:11:21;;;;;;;24.17;5.97;;;10.90;99.90;;;;;;5097525;28;20439;-81
2023/05/26 04:13:46;;;;;;;24.50;6.93;;;11.00;99.90;;;;;;5078894;28;20648;-77
2023/05/26 04:16:12;;;;;;;26.30;7.10;;;11.00;99.90;;;;;;5073610;28;20466;-80
2023/05/26 04:18:39;;;;;;;18.83;6.60;;;11.10;99.90;;;;;;5101294;28;20183;-78
2023/05/26 04:21:05;;;;;;;19.07;7.37;;;11.10;99.90;;;;;;5091376;28;20254;-80
2023/05/26 04:23:31;;;;;;;24.00;7.17;;;11.20;99.90;;;;;;5097240;28;20482;-80
2023/05/26 04:25:56;;;;;;;20.60;6.67;;;11.30;99.90;;;;;;5100139;28;20268;-80
2023/05/26 04:28:24;;;;;;;19.70;7.40;;;11.30;99.90;;;;;;5097670;28;20196;-79
2023/05/26 04:30:50;;;;;;;26.77;6.80;;;11.40;99.90;;;;;;5095523;28;20179;-80
2023/05/26 04:33:15;;;;;;;28.03;6.90;;;11.50;99.90;;;;;;5098824;28;20530;-77
2023/05/26 04:35:44;;;;;;;31.43;8.67;;;11.60;99.90;;;;;;5101438;28;20200;-80
2023/05/26 04:38:12;;;;;;;29.17;7.23;;;11.70;99.90;;;;;;5093146;28;20263;-79
2023/05/26 04:40:41;;;;;;;24.80;7.50;;;11.80;70.20;;;;;;5101215;28;20470;-77
2023/05/26 04:43:06;;;;;;;22.60;7.73;;;11.80;30.70;;;;;;5096337;28;20536;-79
2023/05/26 04:45:36;;;;;;;21.63;6.90;;;11.90;19.20;;;;;;5081549;28;20487;-81
2023/05/26 04:48:02;;;;;;;27.70;8.47;;;11.90;4.10;;;;;;5087961;28;20187;-80
2023/05/26 04:50:27;;;;;;;28.60;7.40;;;12.00;1.60;;;;;;5074724;28;20454;-79
2023/05/26 04:52:53;;;;;;;21.50;6.53;;;12.10;7.20;;;;;;5099758;28;21028;-79
2023/05/26 04:55:19;;;;;;;31.13;8.93;;;12.10;6.70;;;;;;5082564;28;20215;-79
2023/05/26 04:57:45;;;;;;;25.27;8.60;;;12.20;6.80;;;;;;5099592;28;20207;-79
2023/05/26 05:00:13;;;;;;;24.70;7.10;;;12.30;1.00;;;;;;5086586;28;20682;-78
2023/05/26 05:02:38;;;;;;;32.93;9.53;;;12.40;1.00;;;;;;5071634;28;20435;-80
2023/05/26 05:05:04;;;;;;;33.07;8.93;;;12.40;1.00;;;;;;5091607;28;22087;-80
2023/05/26 05:07:30;;;;;;;30.17;9.40;;;12.40;1.00;;;;;;5094036;28;20177;-78
2023/05/26 05:09:55;;;;;;;20.50;8.60;;;12.40;1.00;;;;;;5070744;28;20445;-79
2023/05/26 05:12:21;;;;;;;27.00;10.53;;;12.40;1.00;;;;;;5094462;28;20203;-80
2023/05/26 05:14:47;;;;;;;34.03;10.37;;;12.40;1.00;;;;;;5088999;28;20204;-81
2023/05/26 05:17:12;;;;;;;39.03;12.93;;;12.30;1.00;;;;;;5093926;28;20184;-79
2023/05/26 05:19:38;;;;;;;40.77;13.80;;;12.30;1.00;;;;;;5095639;28;20244;-79
2023/05/26 05:22:03;;;;;;;39.30;15.93;;;12.20;1.00;;;;;;5095784;28;20339;-81
2023/05/26 05:24:29;;;;;;;38.60;15.47;;;12.20;1.00;;;;;;5096417;28;20180;-81
2023/05/26 05:26:54;;;;;;;38.50;16.77;;;12.10;16.20;;;;;;5082993;28;20184;-79
2023/05/26 05:29:20;;;;;;;35.20;16.17;;;12.10;27.50;;;;;;5088896;28;20199;-81
2023/05/26 05:31:46;;;;;;;43.03;17.30;;;12.10;58.20;;;;;;5092431;28;20275;-79
2023/05/26 05:34:11;;;;;;;37.27;17.17;;;12.10;99.90;;;;;;5070541;28;20674;-81
2023/05/26 05:36:37;;;;;;;36.80;17.73;;;12.20;79.80;;;;;;5081322;28;20196;-80
2023/05/26 05:39:03;;;;;;;40.23;18.03;;;12.20;65.70;;;;;;5067609;28;20224;-81
2023/05/26 05:41:28;;;;;;;40.13;16.87;;;12.30;56.90;;;;;;5090336;28;20188;-81
2023/05/26 05:43:56;;;;;;;34.70;15.53;;;12.50;44.80;;;;;;5079613;28;20180;-80
2023/05/26 05:46:23;;;;;;;48.10;18.57;;;12.60;1.00;;;;;;5097967;28;20204;-79
2023/05/26 05:48:49;;;;;;;35.70;16.40;;;12.80;1.00;;;;;;5101067;28;20909;-79
2023/05/26 05:51:15;;;;;;;35.73;14.73;;;13.10;1.00;;;;;;5102569;28;20488;-81
2023/05/26 05:53:40;;;;;;;31.40;14.03;;;13.50;1.00;;;;;;5096696;28;20187;-80
2023/05/26 05:56:06;;;;;;;31.27;15.30;;;13.90;1.00;;;;;;5093237;28;20212;-81
2023/05/26 05:58:31;;;;;;;31.00;15.40;;;14.10;1.00;;;;;;5093145;28;20240;-79
2023/05/26 06:00:57;;;;;;;43.27;15.33;;;14.50;99.90;;;;;;5068656;28;20200;-78
2023/05/26 06:03:22;;;;;;;32.73;14.37;;;14.40;99.90;;;;;;5101315;28;20183;-79
2023/05/26 06:05:48;;;;;;;31.30;14.90;;;14.50;99.90;;;;;;5081779;28;20200;-81
2023/05/26 06:08:13;;;;;;;38.27;15.43;;;14.60;99.90;;;;;;5093652;28;20209;-82
2023/05/26 06:10:41;;;;;;;30.63;14.00;;;14.50;99.90;;;;;;5095990;28;20213;-82
2023/05/26 06:13:06;;;;;;;32.57;15.90;;;14.50;99.90;;;;;;5087473;28;20195;-80
2023/05/26 06:15:32;;;;;;;27.63;14.80;;;14.40;99.90;;;;;;5097048;28;20451;-82
2023/05/26 06:17:58;;;;;;;31.50;15.33;;;14.30;99.90;;;;;;5085702;28;20184;-82
2023/05/26 06:20:23;;;;;;;30.87;14.77;;;14.40;99.90;;;;;;5108276;28;20457;-82
2023/05/26 06:22:49;;;;;;;27.43;14.87;;;14.60;99.90;;;;;;5104820;28;20241;-83
2023/05/26 06:25:17;;;;;;;37.83;15.93;;;14.70;99.90;;;;;;5083654;28;20232;-82
2023/05/26 06:27:42;;;;;;;34.20;16.37;;;14.80;99.90;;;;;;5105641;28;20186;-83
2023/05/26 06:30:08;;;;;;;33.60;14.40;;;14.90;99.90;;;;;;5085872;28;20942;-81
2023/05/26 06:32:34;;;;;;;34.10;15.40;;;15.00;99.90;;;;;;5086157;28;20197;-79
2023/05/26 06:34:59;;;;;;;44.63;18.20;;;15.20;99.90;;;;;;5103298;28;20209;-82
2023/05/26 06:37:25;;;;;;;31.70;16.63;;;15.40;99.90;;;;;;5102215;28;20651;-80
2023/05/26 06:39:50;;;;;;;42.83;16.63;;;15.90;99.90;;;;;;5101055;28;20222;-79
2023/05/26 06:42:16;;;;;;;34.77;16.57;;;16.20;99.90;;;;;;5100550;28;20180;-83
2023/05/26 06:44:41;;;;;;;33.00;15.70;;;16.50;99.90;;;;;;5083704;28;20274;-80
2023/05/26 06:47:08;;;;;;;32.53;16.13;;;16.70;99.90;;;;;;5096788;28;20193;-79
2023/05/26 06:49:33;;;;;;;33.63;16.13;;;17.20;99.90;;;;;;5098693;28;20195;-80
2023/05/26 06:51:59;;;;;;;36.90;16.50;;;17.40;99.90;;;;;;5095841;28;20926;-80
2023/05/26 06:54:25;;;;;;;44.60;16.67;;;17.50;99.90;;;;;;5081712;28;20210;-81
2023/05/26 06:56:50;;;;;;;38.30;17.33;;;17.70;99.90;;;;;;5097431;28;20257;-81
2023/05/26 06:59:16;;;;;;;29.63;15.77;;;17.90;99.90;;;;;;5077243;28;20217;-83
2023/05/26 07:01:41;;;;;;;29.77;13.50;;;18.60;99.90;;;;;;5100593;28;20563;-81
2023/05/26 07:04:07;;;;;;;25.57;11.63;;;20.40;99.90;;;;;;5100639;28;20178;-80
2023/05/26 07:06:33;;;;;;;29.03;13.43;;;21.30;99.90;;;;;;5076519;28;20210;-81
2023/05/26 07:08:58;;;;;;;32.67;13.27;;;20.70;99.90;;;;;;5080412;28;20270;-79
2023/05/26 07:11:24;;;;;;;31.73;13.60;;;20.30;99.90;;;;;;5079751;28;20195;-81
2023/05/26 07:13:53;;;;;;;27.37;12.50;;;20.30;99.90;;;;;;5086097;28;20251;-82
2023/05/26 07:16:19;;;;;;;22.00;12.20;;;23.60;99.90;;;;;;5099817;28;20444;-83
2023/05/26 07:18:47;;;;;;;26.30;13.67;;;24.40;99.90;;;;;;5078582;28;20797;-84
2023/05/26 07:21:14;;;;;;;33.43;13.30;;;25.20;99.90;;;;;;5102661;28;20949;-82
2023/05/26 07:23:42;;;;;;;29.43;12.40;;;26.50;99.90;;;;;;5084911;28;21276;-83
2023/05/26 07:26:08;;;;;;;22.70;9.83;;;28.90;99.90;;;;;;5079481;28;20591;-84
2023/05/26 07:28:36;;;;;;;25.77;9.73;;;32.60;99.90;;;;;;5079001;28;20486;-83
2023/05/26 07:31:01;;;;;;;22.20;9.87;;;34.80;99.90;;;;;;5102383;28;20184;-82
2023/05/26 07:33:27;;;;;;;18.83;8.90;;;36.30;99.90;;;;;;5081541;28;20426;-84
2023/05/26 07:36:02;;;;;;;22.30;8.43;;;36.50;99.90;;;;;;5083394;28;20211;-83
2023/05/26 07:38:27;;;;;;;19.40;8.50;;;38.30;99.90;;;;;;5101411;28;20694;-82
2023/05/26 07:40:55;;;;;;;19.97;7.90;;;39.80;99.90;;;;;;5092940;28;20458;-84
2023/05/26 07:43:23;;;;;;;22.47;7.73;;;40.60;99.90;;;;;;5082993;28;20765;-83
2023/05/26 07:45:49;;;;;;;20.17;8.00;;;41.60;99.90;;;;;;5098486;28;20469;-85
2023/05/26 07:48:14;;;;;;;19.70;8.73;;;37.70;98.70;;;;;;5078975;28;21126;-84
2023/05/26 07:50:40;;;;;;;19.03;8.23;;;37.80;97.70;;;;;;5094192;28;20207;-83
2023/05/26 07:53:10;;;;;;;25.83;9.20;;;36.90;92.00;;;;;;5080506;28;20192;-84
2023/05/26 07:55:36;;;;;;;27.93;9.40;;;34.30;80.30;;;;;;5093832;28;20192;-85
2023/05/26 07:58:02;;;;;;;28.20;9.60;;;31.80;69.00;;;;;;5078918;28;20439;-84
2023/05/26 08:00:27;;;;;;;20.63;8.83;;;29.70;59.10;;;;;;5093741;28;20184;-84
2023/05/26 08:02:53;;;;;;;26.00;10.37;;;28.40;55.60;;;;;;5079225;28;20187;-82
2023/05/26 08:05:19;;;;;;;27.30;9.53;;;27.60;54.50;;;;;;5093191;28;20272;-83
2023/05/26 08:07:45;;;;;;;25.43;9.63;;;28.90;60.40;;;;;;5096135;28;20794;-83
2023/05/26 08:10:13;;;;;;;22.33;8.20;;;29.80;64.80;;;;;;5098396;28;20464;-83
2023/05/26 08:12:51;;;;;;;15.60;7.80;;;30.80;67.70;;;;;;5096911;28;20180;-84
2023/05/26 08:15:20;;;;;;;16.53;7.23;;;34.00;80.50;;;;;;5095855;28;20454;-85
2023/05/26 08:17:47;;;;;;;16.00;6.83;;;38.00;89.00;;;;;;5096201;28;20510;-83
2023/05/26 08:20:15;;;;;;;26.37;8.10;;;40.30;87.10;;;;;;5075428;28;20492;-82
2023/05/26 08:22:40;;;;;;;24.17;8.40;;;41.10;81.70;;;;;;5100551;28;20440;-82
2023/05/26 08:25:06;;;;;;;17.60;7.53;;;42.20;77.50;;;;;;5097505;28;20485;-83
2023/05/26 08:27:34;;;;;;;18.03;7.87;;;42.30;69.70;;;;;;5091062;28;20176;-83
2023/05/26 08:30:00;;;;;;;21.60;7.97;;;41.60;62.20;;;;;;5080130;28;20210;-84
2023/05/26 08:32:25;;;;;;;21.43;8.27;;;40.10;56.20;;;;;;5080783;28;20510;-82
2023/05/26 08:34:51;;;;;;;17.00;8.23;;;39.70;58.90;;;;;;5084794;28;20196;-81
2023/05/26 08:40:33;;;;;;;19.50;8.60;;;40.40;53.10;;;;;;5057544;28;20264;-83
2023/05/26 08:43:24;;;;;;;17.80;8.13;;;41.20;51.80;;;;;;5096998;28;20441;-85
2023/05/26 08:45:53;;;;;;;18.30;8.50;;;42.20;50.20;;;;;;5101397;28;20489;-80
2023/05/26 08:48:19;;;;;;;19.03;7.17;;;43.50;50.30;;;;;;5092039;28;20484;-81
2023/05/26 08:50:53;;;;;;;22.50;8.68;;;44.90;50.90;;;;;;5092939;28;20432;-82
2023/05/26 08:53:20;;;;;;;18.50;7.93;;;45.20;46.80;;;;;;5094400;28;20178;-81
2023/05/26 08:55:49;;;;;;;18.23;7.87;;;44.60;43.10;;;;;;5081576;28;20472;-83
2023/05/26 08:58:18;;;;;;;20.83;8.20;;;44.20;41.00;;;;;;5069627;28;20435;-82
2023/05/26 09:00:52;;;;;;;15.20;7.63;;;44.30;39.60;;;;;;5093745;28;20458;-81
2023/05/26 09:03:17;;;;;;;21.63;6.40;;;44.70;39.10;;;;;;5098306;28;20430;-83
2023/05/26 09:05:45;;;;;;;18.07;6.80;;;45.30;38.10;;;;;;5097199;28;20532;-81
2023/05/26 09:08:13;;;;;;;21.77;8.30;;;45.00;35.10;;;;;;5089545;28;20184;-82
2023/05/26 09:10:39;;;;;;;17.87;7.33;;;44.80;33.30;;;;;;5089929;28;20818;-81
2023/05/26 09:13:07;;;;;;;17.17;6.80;;;45.10;32.60;;;;;;5086346;28;20962;-79
2023/05/26 09:15:34;;;;;;;17.80;7.17;;;45.60;32.70;;;;;;5095813;28;20450;-79
2023/05/26 09:18:12;;;;;;;21.83;8.97;;;45.80;32.00;;;;;;5070493;28;20430;-79
2023/05/26 09:20:48;;;;;;;18.70;8.10;;;44.80;28.40;;;;;;5095676;28;20501;-79
2023/05/26 09:23:15;;;;;;;14.47;6.63;;;43.70;27.20;;;;;;5095377;28;20528;-82
2023/05/26 09:25:43;;;;;;;20.30;7.10;;;43.60;26.60;;;;;;5094275;28;20964;-80
2023/05/26 09:28:11;;;;;;;15.43;7.30;;;44.00;27.40;;;;;;5095832;28;20430;-81
2023/05/26 09:30:38;;;;;;;17.97;7.30;;;44.10;27.50;;;;;;5094088;28;20569;-82
2023/05/26 09:33:06;;;;;;;17.63;7.47;;;43.90;25.60;;;;;;5079270;28;20444;-82
2023/05/26 09:36:07;;;;;;;19.00;7.77;;;43.40;24.50;;;;;;5096970;28;20795;-84
2023/05/26 09:39:09;;;;;;;;;;;;;;;;;;;;;
2023/05/26 09:41:46;;;;;;;16.17;7.00;;;43.00;23.70;;;;;;5089541;28;21260;-82
2023/05/26 09:44:17;;;;;;;18.63;8.27;;;42.70;23.30;;;;;;5092143;28;20441;-82
2023/05/26 09:46:44;;;;;;;16.70;7.20;;;42.60;22.90;;;;;;5075777;28;20485;-82
2023/05/26 09:49:17;;;;;;;20.10;7.67;;;42.80;23.20;;;;;;5075626;28;20490;-81
2023/05/26 09:51:50;;;;;;;16.53;7.23;;;43.20;23.40;;;;;;5089424;28;20431;-80
2023/05/26 09:54:16;;;;;;;20.87;7.43;;;43.20;23.00;;;;;;5093913;28;20465;-81
2023/05/26 09:56:55;;;;;;;14.80;7.10;;;43.30;23.00;;;;;;5064617;28;20458;-81
2023/05/26 09:59:31;;;;;;;15.87;7.40;;;43.30;23.00;;;;;;5089442;28;20913;-80
2023/05/26 10:01:57;;;;;;;19.80;7.20;;;43.20;22.40;;;;;;5090957;28;20437;-80
2023/05/26 10:04:24;;;;;;;27.30;8.30;;;42.80;21.60;;;;;;5070287;28;20431;-82
2023/05/26 10:06:52;;;;;;;19.57;7.50;;;42.80;21.20;;;;;;5073391;28;20460;-82
2023/05/26 10:09:21;;;;;;;17.20;7.67;;;43.00;21.70;;;;;;5095581;28;20438;-80
2023/05/26 10:11:49;;;;;;;21.63;7.80;;;43.10;21.30;;;;;;5095019;28;20438;-81
2023/05/26 10:14:14;;;;;;;19.67;7.50;;;43.10;21.40;;;;;;5098797;28;20493;-81
2023/05/26 10:16:41;;;;;;;20.40;7.32;;;42.80;21.40;;;;;;5094514;28;20460;-83
2023/05/26 10:19:07;;;;;;;22.03;7.70;;;42.80;20.40;;;;;;5087918;28;20177;-81
2023/05/26 10:21:42;;;;;;;17.27;7.00;;;42.00;18.70;;;;;;5094867;28;20591;-82
2023/05/26 10:24:07;;;;;;;20.43;7.17;;;41.10;18.10;;;;;;5090666;28;20179;-80
2023/05/26 10:26:43;;;;;;;20.53;6.87;;;40.10;16.90;;;;;;5094495;28;20456;-80
2023/05/26 10:29:13;;;;;;;17.53;6.40;;;40.10;17.70;;;;;;5095649;28;20193;-81
2023/05/26 10:31:40;;;;;;;14.03;6.90;;;40.40;18.30;;;;;;5090088;28;20422;-82
2023/05/26 10:34:34;;;;;;;24.60;8.43;;;40.50;18.30;;;;;;5093654;28;20482;-81
2023/05/26 10:37:01;;;;;;;17.63;7.60;;;40.50;18.70;;;;;;5074556;28;20458;-85
2023/05/26 10:39:27;;;;;;;26.03;7.77;;;40.30;28.10;;;;;;5093720;28;20426;-84
2023/05/26 10:41:53;;;;;;;16.80;7.13;;;40.20;18.80;;;;;;5095413;28;20449;-84
2023/05/26 10:44:39;;;;;;;20.70;8.30;;;40.20;18.60;;;;;;5079461;28;20434;-84
2023/05/26 10:47:05;;;;;;;17.47;7.53;;;40.00;18.90;;;;;;5092110;28;20445;-84
2023/05/26 10:49:35;;;;;;;22.10;7.40;;;39.80;18.30;;;;;;5065344;28;20427;-84
2023/05/26 10:52:10;;;;;;;18.50;8.60;;;39.80;18.80;;;;;;5085944;28;20181;-85
2023/05/26 10:54:36;;;;;;;19.80;7.27;;;39.90;18.70;;;;;;5101210;28;20430;-83
2023/05/26 10:57:02;;;;;;;17.17;7.73;;;39.70;18.30;;;;;;5092716;28;20441;-84
2023/05/26 10:59:35;;;;;;;18.30;8.00;;;38.90;16.90;;;;;;5079041;28;20180;-84
2023/05/26 11:02:08;;;;;;;20.30;8.07;;;38.30;16.00;;;;;;5104177;28;20176;-82
2023/05/26 11:04:47;;;;;;;18.70;8.73;;;37.90;15.60;;;;;;5104536;28;20437;-83
2023/05/26 11:07:26;;;;;;;22.53;7.70;;;37.30;15.80;;;;;;5105254;28;20445;-82
2023/05/26 11:10:05;;;;;;;27.10;8.50;;;37.40;16.90;;;;;;5100069;28;20449;-85
2023/05/26 11:12:35;;;;;;;19.30;7.40;;;37.50;17.90;;;;;;5083519;28;20464;-82
2023/05/26 11:15:26;;;;;;;15.83;7.83;;;37.90;18.20;;;;;;5085985;28;20439;-84
2023/05/26 11:18:01;;;;;;;19.10;8.67;;;38.10;19.60;;;;;;5097005;28;20823;-83
2023/05/26 11:20:27;;;;;;;24.50;8.50;;;37.30;18.30;;;;;;5105725;28;20514;-84
2023/05/26 11:22:53;;;;;;;20.93;7.53;;;36.40;16.40;;;;;;5104916;28;20874;-85
2023/05/26 11:25:19;;;;;;;18.80;7.47;;;36.70;17.30;;;;;;5088826;28;20850;-84
2023/05/26 11:27:48;;;;;;;21.13;7.83;;;36.70;18.20;;;;;;5100889;28;20184;-84
2023/05/26 11:30:14;;;;;;;23.73;8.03;;;36.70;18.50;;;;;;5072742;28;20443;-81
2023/05/26 11:32:51;;;;;;;21.57;7.77;;;36.50;18.30;;;;;;5079794;28;20446;-84
2023/05/26 11:35:27;;;;;;;16.53;7.40;;;36.10;27.30;;;;;;5102764;28;20613;-81
2023/05/26 11:37:54;;;;;;;17.47;7.33;;;35.90;18.10;;;;;;5083522;28;20480;-84
2023/05/26 11:40:20;;;;;;;20.37;7.37;;;35.90;18.20;;;;;;5077351;28;20457;-83
2023/05/26 11:42:46;;;;;;;16.60;6.90;;;36.00;19.20;;;;;;5099057;28;20445;-81
2023/05/26 11:45:12;;;;;;;21.10;8.40;;;36.00;19.60;;;;;;5096478;28;20200;-81
2023/05/26 11:47:38;;;;;;;17.10;6.90;;;35.40;18.40;;;;;;5100912;28;20426;-81
2023/05/26 11:50:11;;;;;;;18.97;7.53;;;35.10;17.80;;;;;;5071727;28;20449;-83
2023/05/26 11:52:47;;;;;;;24.60;8.23;;;35.00;18.50;;;;;;5091589;28;20196;-82
2023/05/26 11:55:13;;;;;;;16.70;7.63;;;34.90;18.40;;;;;;5094195;28;20462;-81
2023/05/26 11:57:40;;;;;;;19.87;6.70;;;34.90;19.30;;;;;;5096990;28;20467;-82
2023/05/26 12:00:17;;;;;;;17.37;7.40;;;34.90;19.70;;;;;;5095544;28;20545;-82
2023/05/26 12:02:44;;;;;;;21.00;7.63;;;34.70;19.40;;;;;;5099562;28;20453;-82
2023/05/26 12:05:29;;;;;;;17.57;6.30;;;34.60;19.80;;;;;;5095529;28;20462;-84
2023/05/26 12:08:07;;;;;;;22.90;7.37;;;34.70;20.40;;;;;;5098341;28;20869;-82
2023/05/26 12:10:33;;;;;;;17.23;5.73;;;35.00;22.00;;;;;;5097951;28;20460;-82
2023/05/26 12:13:00;;;;;;;23.47;7.77;;;35.10;21.80;;;;;;5095887;28;20449;-80
2023/05/26 12:15:25;;;;;;;16.73;7.03;;;35.00;21.60;;;;;;5095320;28;20454;-80
2023/05/26 12:17:53;;;;;;;24.13;8.17;;;34.80;21.70;;;;;;5097229;28;20967;-81
2023/05/26 12:20:20;;;;;;;17.13;7.80;;;34.20;20.60;;;;;;5074316;28;20249;-82
2023/05/26 12:23:01;;;;;;;20.90;7.40;;;33.90;19.80;;;;;;5076363;28;20461;-83
2023/05/26 12:25:31;;;;;;;21.23;7.30;;;33.50;19.40;;;;;;5101664;28;21025;-82
2023/05/26 12:27:56;;;;;;;19.07;6.67;;;32.80;18.70;;;;;;5099647;28;20944;-82
2023/05/26 12:30:26;;;;;;;19.73;7.70;;;32.70;19.50;;;;;;5094996;28;20443;-81
2023/05/26 12:32:52;;;;;;;15.90;7.13;;;32.50;18.90;;;;;;5081848;28;20180;-81
2023/05/26 12:35:18;;;;;;;22.00;7.70;;;32.20;19.00;;;;;;5097459;28;20523;-82
2023/05/26 12:37:46;;;;;;;21.03;7.67;;;32.30;19.80;;;;;;5091397;28;20234;-80
2023/05/26 12:40:13;;;;;;;18.37;7.23;;;32.00;19.10;;;;;;5079422;28;20468;-81
2023/05/26 12:42:39;;;;;;;17.03;6.57;;;32.00;19.70;;;;;;5096272;28;20487;-80
2023/05/26 12:45:06;;;;;;;18.23;7.13;;;32.00;20.40;;;;;;5079770;28;20897;-81